sensor_id;sensor_type;location;lat;lon;timestamp;P1;durP1;ratioP1;P2;durP2;ratioP2
45944;SDS011;31655;48.972;10.686;2022-10-15T00:02:08;7.32;;;4.35;;
45944;SDS011;31655;48.972;10.686;2022-10-15T00:04:35;7.18;;;4.45;;
45944;SDS011;31655;48.972;10.686;2022-10-15T00:07:00;8.48;;;4.65;;
45944;SDS011;31655;48.972;10.686;2022-10-15T00:09:26;7.25;;;4.05;;
45944;SDS011;31655;48.972;10.686;2022-10-15T00:11:52;5.43;;;4.18;;
45944;SDS011;31655;48.972;10.686;2022-10-15T00:14:18;7.20;;;3.70;;
45944;SDS011;31655;48.972;10.686;2022-10-15T00:16:44;5.85;;;4.18;;
45944;SDS011;31655;48.972;10.686;2022-10-15T00:19:10;7.05;;;3.55;;
45944;SDS011;31655;48.972;10.686;2022-10-15T00:21:36;4.90;;;3.53;;
45944;SDS011;31655;48.972;10.686;2022-10-15T00:24:03;3.55;;;3.08;;
45944;SDS011;31655;48.972;10.686;2022-10-15T00:26:29;5.43;;;3.47;;
45944;SDS011;31655;48.972;10.686;2022-10-15T00:28:56;3.47;;;2.78;;
45944;SDS011;31655;48.972;10.686;2022-10-15T00:31:26;7.25;;;3.33;;
45944;SDS011;31655;48.972;10.686;2022-10-15T00:33:55;5.80;;;2.83;;
45944;SDS011;31655;48.972;10.686;2022-10-15T00:36:24;3.50;;;2.53;;
45944;SDS011;31655;48.972;10.686;2022-10-15T00:38:55;3.92;;;2.72;;
45944;SDS011;31655;48.972;10.686;2022-10-15T00:41:28;4.15;;;3.08;;
45944;SDS011;31655;48.972;10.686;2022-10-15T00:43:58;4.55;;;2.70;;
45944;SDS011;31655;48.972;10.686;2022-10-15T00:46:28;2.80;;;2.50;;
45944;SDS011;31655;48.972;10.686;2022-10-15T00:49:02;4.80;;;2.97;;
45944;SDS011;31655;48.972;10.686;2022-10-15T00:51:53;3.55;;;3.15;;
45944;SDS011;31655;48.972;10.686;2022-10-15T00:54:28;4.95;;;2.55;;
45944;SDS011;31655;48.972;10.686;2022-10-15T00:56:58;4.07;;;2.40;;
45944;SDS011;31655;48.972;10.686;2022-10-15T00:59:24;4.65;;;2.80;;
45944;SDS011;31655;48.972;10.686;2022-10-15T01:01:53;3.90;;;3.20;;
45944;SDS011;31655;48.972;10.686;2022-10-15T01:04:19;5.40;;;3.00;;
45944;SDS011;31655;48.972;10.686;2022-10-15T01:06:46;4.75;;;2.53;;
45944;SDS011;31655;48.972;10.686;2022-10-15T01:09:12;3.95;;;3.08;;
45944;SDS011;31655;48.972;10.686;2022-10-15T01:11:42;5.68;;;2.83;;
45944;SDS011;31655;48.972;10.686;2022-10-15T01:23:06;4.18;;;3.50;;
45944;SDS011;31655;48.972;10.686;2022-10-15T01:28:57;3.85;;;2.72;;
45944;SDS011;31655;48.972;10.686;2022-10-15T01:34:29;3.13;;;2.70;;
45944;SDS011;31655;48.972;10.686;2022-10-15T01:37:18;4.00;;;3.30;;
45944;SDS011;31655;48.972;10.686;2022-10-15T01:39:58;6.60;;;3.45;;
45944;SDS011;31655;48.972;10.686;2022-10-15T01:42:44;6.05;;;4.13;;
45944;SDS011;31655;48.972;10.686;2022-10-15T01:45:19;4.53;;;3.72;;
45944;SDS011;31655;48.972;10.686;2022-10-15T01:47:55;5.05;;;3.53;;
45944;SDS011;31655;48.972;10.686;2022-10-15T01:50:25;5.57;;;3.30;;
45944;SDS011;31655;48.972;10.686;2022-10-15T01:52:54;4.03;;;3.38;;
45944;SDS011;31655;48.972;10.686;2022-10-15T01:55:21;5.75;;;2.92;;
45944;SDS011;31655;48.972;10.686;2022-10-15T01:57:48;3.58;;;2.95;;
45944;SDS011;31655;48.972;10.686;2022-10-15T02:00:15;5.50;;;2.90;;
45944;SDS011;31655;48.972;10.686;2022-10-15T02:02:42;5.68;;;3.03;;
45944;SDS011;31655;48.972;10.686;2022-10-15T02:05:10;2.90;;;2.65;;
45944;SDS011;31655;48.972;10.686;2022-10-15T02:13:21;3.33;;;2.80;;
45944;SDS011;31655;48.972;10.686;2022-10-15T02:18:28;3.03;;;2.65;;
45944;SDS011;31655;48.972;10.686;2022-10-15T02:21:18;3.50;;;2.88;;
45944;SDS011;31655;48.972;10.686;2022-10-15T02:23:55;3.28;;;2.22;;
45944;SDS011;31655;48.972;10.686;2022-10-15T02:26:39;6.03;;;2.45;;
45944;SDS011;31655;48.972;10.686;2022-10-15T02:29:07;3.60;;;2.85;;
45944;SDS011;31655;48.972;10.686;2022-10-15T02:31:40;4.70;;;3.10;;
45944;SDS011;31655;48.972;10.686;2022-10-15T02:34:09;4.90;;;3.10;;
45944;SDS011;31655;48.972;10.686;2022-10-15T02:36:42;3.40;;;2.80;;
45944;SDS011;31655;48.972;10.686;2022-10-15T02:39:09;5.97;;;3.60;;
45944;SDS011;31655;48.972;10.686;2022-10-15T02:41:38;4.65;;;3.25;;
45944;SDS011;31655;48.972;10.686;2022-10-15T02:44:04;3.65;;;2.88;;
45944;SDS011;31655;48.972;10.686;2022-10-15T02:46:30;5.07;;;3.60;;
45944;SDS011;31655;48.972;10.686;2022-10-15T02:48:56;7.80;;;4.05;;
45944;SDS011;31655;48.972;10.686;2022-10-15T02:51:22;5.22;;;3.53;;
45944;SDS011;31655;48.972;10.686;2022-10-15T02:53:47;5.43;;;3.78;;
45944;SDS011;31655;48.972;10.686;2022-10-15T02:56:13;5.25;;;3.78;;
45944;SDS011;31655;48.972;10.686;2022-10-15T02:58:38;4.22;;;3.58;;
45944;SDS011;31655;48.972;10.686;2022-10-15T03:01:04;7.72;;;4.28;;
45944;SDS011;31655;48.972;10.686;2022-10-15T03:03:30;5.50;;;3.63;;
45944;SDS011;31655;48.972;10.686;2022-10-15T03:05:56;6.07;;;3.60;;
45944;SDS011;31655;48.972;10.686;2022-10-15T03:08:21;7.72;;;4.25;;
45944;SDS011;31655;48.972;10.686;2022-10-15T03:10:47;5.28;;;3.85;;
45944;SDS011;31655;48.972;10.686;2022-10-15T03:13:13;7.80;;;4.40;;
45944;SDS011;31655;48.972;10.686;2022-10-15T03:15:41;8.52;;;5.28;;
45944;SDS011;31655;48.972;10.686;2022-10-15T03:18:07;7.65;;;4.50;;
45944;SDS011;31655;48.972;10.686;2022-10-15T03:20:33;5.63;;;4.65;;
45944;SDS011;31655;48.972;10.686;2022-10-15T03:22:59;6.15;;;5.05;;
45944;SDS011;31655;48.972;10.686;2022-10-15T03:25:24;8.00;;;4.95;;
45944;SDS011;31655;48.972;10.686;2022-10-15T03:27:50;6.68;;;5.60;;
45944;SDS011;31655;48.972;10.686;2022-10-15T03:30:17;6.55;;;4.68;;
45944;SDS011;31655;48.972;10.686;2022-10-15T03:32:43;5.45;;;4.40;;
45944;SDS011;31655;48.972;10.686;2022-10-15T03:35:11;8.82;;;5.00;;
45944;SDS011;31655;48.972;10.686;2022-10-15T03:37:37;10.07;;;5.68;;
45944;SDS011;31655;48.972;10.686;2022-10-15T03:40:03;8.98;;;6.72;;
45944;SDS011;31655;48.972;10.686;2022-10-15T03:42:29;6.30;;;4.60;;
45944;SDS011;31655;48.972;10.686;2022-10-15T03:44:57;6.43;;;5.35;;
45944;SDS011;31655;48.972;10.686;2022-10-15T03:47:22;8.50;;;6.72;;
45944;SDS011;31655;48.972;10.686;2022-10-15T03:49:48;13.07;;;8.20;;
45944;SDS011;31655;48.972;10.686;2022-10-15T03:52:14;6.57;;;4.35;;
45944;SDS011;31655;48.972;10.686;2022-10-15T03:54:40;6.32;;;4.55;;
45944;SDS011;31655;48.972;10.686;2022-10-15T03:57:05;6.10;;;4.32;;
45944;SDS011;31655;48.972;10.686;2022-10-15T03:59:31;9.80;;;5.40;;
45944;SDS011;31655;48.972;10.686;2022-10-15T04:01:57;26.42;;;6.60;;
45944;SDS011;31655;48.972;10.686;2022-10-15T04:04:23;9.98;;;4.20;;
45944;SDS011;31655;48.972;10.686;2022-10-15T04:06:48;8.23;;;4.90;;
45944;SDS011;31655;48.972;10.686;2022-10-15T04:09:14;11.45;;;5.53;;
45944;SDS011;31655;48.972;10.686;2022-10-15T04:11:40;12.95;;;6.90;;
45944;SDS011;31655;48.972;10.686;2022-10-15T04:14:06;26.20;;;11.18;;
45944;SDS011;31655;48.972;10.686;2022-10-15T04:16:32;3.67;;;3.20;;
45944;SDS011;31655;48.972;10.686;2022-10-15T04:18:58;7.30;;;3.45;;
45944;SDS011;31655;48.972;10.686;2022-10-15T04:21:24;15.50;;;8.23;;
45944;SDS011;31655;48.972;10.686;2022-10-15T04:23:49;4.90;;;4.00;;
45944;SDS011;31655;48.972;10.686;2022-10-15T04:26:15;4.45;;;2.95;;
45944;SDS011;31655;48.972;10.686;2022-10-15T04:28:41;3.45;;;3.15;;
45944;SDS011;31655;48.972;10.686;2022-10-15T04:31:06;3.80;;;3.30;;
45944;SDS011;31655;48.972;10.686;2022-10-15T04:33:32;4.57;;;3.63;;
45944;SDS011;31655;48.972;10.686;2022-10-15T04:36:05;4.90;;;3.63;;
45944;SDS011;31655;48.972;10.686;2022-10-15T04:38:33;8.13;;;3.80;;
45944;SDS011;31655;48.972;10.686;2022-10-15T04:41:06;3.35;;;3.05;;
45944;SDS011;31655;48.972;10.686;2022-10-15T04:43:35;3.67;;;3.13;;
45944;SDS011;31655;48.972;10.686;2022-10-15T04:46:02;4.97;;;3.78;;
45944;SDS011;31655;48.972;10.686;2022-10-15T04:48:30;5.28;;;4.20;;
45944;SDS011;31655;48.972;10.686;2022-10-15T04:51:07;14.63;;;5.45;;
45944;SDS011;31655;48.972;10.686;2022-10-15T04:53:35;30.80;;;7.10;;
45944;SDS011;31655;48.972;10.686;2022-10-15T04:56:02;12.35;;;5.22;;
45944;SDS011;31655;48.972;10.686;2022-10-15T04:58:29;14.70;;;5.35;;
45944;SDS011;31655;48.972;10.686;2022-10-15T05:01:03;23.67;;;6.13;;
45944;SDS011;31655;48.972;10.686;2022-10-15T05:03:31;9.57;;;4.90;;
45944;SDS011;31655;48.972;10.686;2022-10-15T05:06:00;7.22;;;5.00;;
45944;SDS011;31655;48.972;10.686;2022-10-15T05:08:28;28.27;;;6.47;;
45944;SDS011;31655;48.972;10.686;2022-10-15T05:10:54;36.80;;;7.28;;
45944;SDS011;31655;48.972;10.686;2022-10-15T05:13:28;33.47;;;7.00;;
45944;SDS011;31655;48.972;10.686;2022-10-15T05:15:54;15.15;;;6.68;;
45944;SDS011;31655;48.972;10.686;2022-10-15T05:18:20;9.52;;;5.32;;
45944;SDS011;31655;48.972;10.686;2022-10-15T05:20:45;7.35;;;4.45;;
45944;SDS011;31655;48.972;10.686;2022-10-15T05:23:11;5.85;;;4.13;;
45944;SDS011;31655;48.972;10.686;2022-10-15T05:25:37;5.57;;;3.95;;
45944;SDS011;31655;48.972;10.686;2022-10-15T05:28:03;4.28;;;3.60;;
45944;SDS011;31655;48.972;10.686;2022-10-15T05:30:29;3.75;;;3.22;;
45944;SDS011;31655;48.972;10.686;2022-10-15T05:32:54;4.43;;;3.30;;
45944;SDS011;31655;48.972;10.686;2022-10-15T05:35:20;3.55;;;3.20;;
45944;SDS011;31655;48.972;10.686;2022-10-15T05:37:47;3.60;;;3.13;;
45944;SDS011;31655;48.972;10.686;2022-10-15T05:40:13;3.83;;;3.13;;
45944;SDS011;31655;48.972;10.686;2022-10-15T05:42:39;7.30;;;3.65;;
45944;SDS011;31655;48.972;10.686;2022-10-15T05:45:04;5.30;;;3.33;;
45944;SDS011;31655;48.972;10.686;2022-10-15T05:47:31;13.07;;;3.58;;
45944;SDS011;31655;48.972;10.686;2022-10-15T05:49:56;3.67;;;2.92;;
45944;SDS011;31655;48.972;10.686;2022-10-15T05:52:22;4.30;;;3.90;;
45944;SDS011;31655;48.972;10.686;2022-10-15T05:54:48;3.67;;;3.10;;
45944;SDS011;31655;48.972;10.686;2022-10-15T05:57:14;4.03;;;3.20;;
45944;SDS011;31655;48.972;10.686;2022-10-15T05:59:39;5.13;;;2.75;;
45944;SDS011;31655;48.972;10.686;2022-10-15T06:02:05;3.83;;;2.80;;
45944;SDS011;31655;48.972;10.686;2022-10-15T06:04:31;4.40;;;2.90;;
45944;SDS011;31655;48.972;10.686;2022-10-15T06:06:57;4.28;;;3.15;;
45944;SDS011;31655;48.972;10.686;2022-10-15T06:09:23;3.22;;;2.85;;
45944;SDS011;31655;48.972;10.686;2022-10-15T06:11:49;3.83;;;2.22;;
45944;SDS011;31655;48.972;10.686;2022-10-15T06:14:14;2.22;;;1.85;;
45944;SDS011;31655;48.972;10.686;2022-10-15T06:16:40;3.08;;;2.28;;
45944;SDS011;31655;48.972;10.686;2022-10-15T06:19:06;3.35;;;2.47;;
45944;SDS011;31655;48.972;10.686;2022-10-15T06:21:31;3.83;;;2.97;;
45944;SDS011;31655;48.972;10.686;2022-10-15T06:23:57;3.88;;;2.78;;
45944;SDS011;31655;48.972;10.686;2022-10-15T06:26:23;3.05;;;2.40;;
45944;SDS011;31655;48.972;10.686;2022-10-15T06:28:48;2.88;;;2.55;;
45944;SDS011;31655;48.972;10.686;2022-10-15T06:31:14;2.72;;;2.05;;
45944;SDS011;31655;48.972;10.686;2022-10-15T06:33:40;3.55;;;2.38;;
45944;SDS011;31655;48.972;10.686;2022-10-15T06:36:06;2.70;;;2.20;;
45944;SDS011;31655;48.972;10.686;2022-10-15T06:38:33;2.47;;;1.85;;
45944;SDS011;31655;48.972;10.686;2022-10-15T06:41:05;3.58;;;2.47;;
45944;SDS011;31655;48.972;10.686;2022-10-15T06:43:31;3.53;;;2.53;;
45944;SDS011;31655;48.972;10.686;2022-10-15T06:45:58;3.22;;;2.47;;
45944;SDS011;31655;48.972;10.686;2022-10-15T06:48:24;3.03;;;2.33;;
45944;SDS011;31655;48.972;10.686;2022-10-15T06:50:50;2.60;;;1.45;;
45944;SDS011;31655;48.972;10.686;2022-10-15T06:53:16;5.78;;;3.17;;
45944;SDS011;31655;48.972;10.686;2022-10-15T06:55:41;4.43;;;2.80;;
45944;SDS011;31655;48.972;10.686;2022-10-15T06:58:07;4.50;;;2.50;;
45944;SDS011;31655;48.972;10.686;2022-10-15T07:00:33;9.43;;;5.95;;
45944;SDS011;31655;48.972;10.686;2022-10-15T07:03:03;8.43;;;4.00;;
45944;SDS011;31655;48.972;10.686;2022-10-15T07:05:29;2.72;;;1.48;;
45944;SDS011;31655;48.972;10.686;2022-10-15T07:07:56;2.55;;;1.80;;
45944;SDS011;31655;48.972;10.686;2022-10-15T07:10:22;3.40;;;1.10;;
45944;SDS011;31655;48.972;10.686;2022-10-15T07:12:49;3.88;;;1.20;;
45944;SDS011;31655;48.972;10.686;2022-10-15T07:15:15;4.63;;;1.48;;
45944;SDS011;31655;48.972;10.686;2022-10-15T07:17:47;2.17;;;1.50;;
45944;SDS011;31655;48.972;10.686;2022-10-15T07:20:14;2.25;;;1.20;;
45944;SDS011;31655;48.972;10.686;2022-10-15T07:22:40;1.42;;;1.23;;
45944;SDS011;31655;48.972;10.686;2022-10-15T07:25:06;2.83;;;1.15;;
45944;SDS011;31655;48.972;10.686;2022-10-15T07:27:33;2.47;;;1.92;;
45944;SDS011;31655;48.972;10.686;2022-10-15T07:29:59;1.27;;;1.17;;
45944;SDS011;31655;48.972;10.686;2022-10-15T07:32:25;1.38;;;0.95;;
45944;SDS011;31655;48.972;10.686;2022-10-15T07:34:51;3.58;;;2.08;;
45944;SDS011;31655;48.972;10.686;2022-10-15T07:37:17;3.30;;;1.60;;
45944;SDS011;31655;48.972;10.686;2022-10-15T07:39:42;1.15;;;0.90;;
45944;SDS011;31655;48.972;10.686;2022-10-15T07:42:08;1.73;;;1.42;;
45944;SDS011;31655;48.972;10.686;2022-10-15T07:44:33;2.47;;;1.10;;
45944;SDS011;31655;48.972;10.686;2022-10-15T07:46:59;5.47;;;3.15;;
45944;SDS011;31655;48.972;10.686;2022-10-15T07:49:25;1.70;;;1.15;;
45944;SDS011;31655;48.972;10.686;2022-10-15T07:51:50;2.10;;;0.90;;
45944;SDS011;31655;48.972;10.686;2022-10-15T07:54:16;2.33;;;1.35;;
45944;SDS011;31655;48.972;10.686;2022-10-15T07:56:41;1.30;;;0.80;;
45944;SDS011;31655;48.972;10.686;2022-10-15T07:59:07;3.25;;;1.42;;
45944;SDS011;31655;48.972;10.686;2022-10-15T08:01:33;4.13;;;1.90;;
45944;SDS011;31655;48.972;10.686;2022-10-15T08:03:59;6.15;;;1.33;;
45944;SDS011;31655;48.972;10.686;2022-10-15T08:06:24;0.70;;;0.60;;
45944;SDS011;31655;48.972;10.686;2022-10-15T08:08:50;0.50;;;0.50;;
45944;SDS011;31655;48.972;10.686;2022-10-15T08:11:16;3.50;;;0.75;;
45944;SDS011;31655;48.972;10.686;2022-10-15T08:13:42;0.98;;;0.40;;
45944;SDS011;31655;48.972;10.686;2022-10-15T08:16:08;0.70;;;0.68;;
45944;SDS011;31655;48.972;10.686;2022-10-15T08:18:35;4.93;;;0.57;;
45944;SDS011;31655;48.972;10.686;2022-10-15T08:21:01;1.65;;;0.63;;
45944;SDS011;31655;48.972;10.686;2022-10-15T08:23:27;4.85;;;1.80;;
45944;SDS011;31655;48.972;10.686;2022-10-15T08:25:53;0.57;;;0.40;;
45944;SDS011;31655;48.972;10.686;2022-10-15T08:28:19;0.25;;;0.25;;
45944;SDS011;31655;48.972;10.686;2022-10-15T08:30:45;1.13;;;0.50;;
45944;SDS011;31655;48.972;10.686;2022-10-15T08:33:10;1.30;;;0.50;;
45944;SDS011;31655;48.972;10.686;2022-10-15T08:35:39;1.88;;;0.50;;
45944;SDS011;31655;48.972;10.686;2022-10-15T08:38:05;3.17;;;0.70;;
45944;SDS011;31655;48.972;10.686;2022-10-15T08:40:31;0.77;;;0.52;;
45944;SDS011;31655;48.972;10.686;2022-10-15T08:42:57;1.83;;;0.50;;
45944;SDS011;31655;48.972;10.686;2022-10-15T08:45:24;2.05;;;0.40;;
45944;SDS011;31655;48.972;10.686;2022-10-15T08:47:59;2.13;;;1.60;;
45944;SDS011;31655;48.972;10.686;2022-10-15T08:50:35;1.13;;;0.77;;
45944;SDS011;31655;48.972;10.686;2022-10-15T08:53:08;0.28;;;0.28;;
45944;SDS011;31655;48.972;10.686;2022-10-15T08:55:38;0.98;;;0.60;;
45944;SDS011;31655;48.972;10.686;2022-10-15T09:00:40;0.50;;;0.40;;
45944;SDS011;31655;48.972;10.686;2022-10-15T09:08:47;1.90;;;0.70;;
45944;SDS011;31655;48.972;10.686;2022-10-15T09:14:06;2.78;;;0.90;;
45944;SDS011;31655;48.972;10.686;2022-10-15T09:16:36;1.55;;;0.63;;
45944;SDS011;31655;48.972;10.686;2022-10-15T09:19:05;0.43;;;0.43;;
45944;SDS011;31655;48.972;10.686;2022-10-15T09:21:39;2.65;;;1.75;;
45944;SDS011;31655;48.972;10.686;2022-10-15T09:24:08;0.77;;;0.63;;
45944;SDS011;31655;48.972;10.686;2022-10-15T09:27:00;3.53;;;2.17;;
45944;SDS011;31655;48.972;10.686;2022-10-15T09:29:38;3.78;;;0.80;;
45944;SDS011;31655;48.972;10.686;2022-10-15T09:37:43;1.27;;;1.00;;
45944;SDS011;31655;48.972;10.686;2022-10-15T09:40:32;2.45;;;0.70;;
45944;SDS011;31655;48.972;10.686;2022-10-15T09:43:07;1.13;;;0.60;;
45944;SDS011;31655;48.972;10.686;2022-10-15T09:45:34;4.65;;;0.85;;
45944;SDS011;31655;48.972;10.686;2022-10-15T09:47:59;1.80;;;0.65;;
45944;SDS011;31655;48.972;10.686;2022-10-15T09:50:40;1.33;;;0.65;;
45944;SDS011;31655;48.972;10.686;2022-10-15T09:53:22;0.85;;;0.70;;
45944;SDS011;31655;48.972;10.686;2022-10-15T09:58:51;1.17;;;0.53;;
45944;SDS011;31655;48.972;10.686;2022-10-15T10:01:21;1.30;;;0.85;;
45944;SDS011;31655;48.972;10.686;2022-10-15T10:06:46;1.90;;;0.60;;
45944;SDS011;31655;48.972;10.686;2022-10-15T10:09:24;2.45;;;0.80;;
45944;SDS011;31655;48.972;10.686;2022-10-15T10:12:05;1.33;;;0.60;;
45944;SDS011;31655;48.972;10.686;2022-10-15T10:14:43;4.57;;;1.08;;
45944;SDS011;31655;48.972;10.686;2022-10-15T10:17:21;2.00;;;1.13;;
45944;SDS011;31655;48.972;10.686;2022-10-15T10:22:54;1.02;;;0.60;;
45944;SDS011;31655;48.972;10.686;2022-10-15T10:27:53;2.20;;;0.88;;
45944;SDS011;31655;48.972;10.686;2022-10-15T10:30:27;2.83;;;1.23;;
45944;SDS011;31655;48.972;10.686;2022-10-15T10:32:58;1.58;;;0.70;;
45944;SDS011;31655;48.972;10.686;2022-10-15T10:35:33;1.90;;;0.80;;
45944;SDS011;31655;48.972;10.686;2022-10-15T10:38:16;2.60;;;0.80;;
45944;SDS011;31655;48.972;10.686;2022-10-15T10:40:50;0.70;;;0.60;;
45944;SDS011;31655;48.972;10.686;2022-10-15T10:43:40;1.27;;;0.73;;
45944;SDS011;31655;48.972;10.686;2022-10-15T10:46:18;3.33;;;0.80;;
45944;SDS011;31655;48.972;10.686;2022-10-15T10:48:55;0.98;;;0.30;;
45944;SDS011;31655;48.972;10.686;2022-10-15T10:51:23;1.48;;;0.55;;
45944;SDS011;31655;48.972;10.686;2022-10-15T10:53:57;1.33;;;0.50;;
45944;SDS011;31655;48.972;10.686;2022-10-15T10:56:33;1.33;;;0.50;;
45944;SDS011;31655;48.972;10.686;2022-10-15T11:01:51;0.40;;;0.40;;
45944;SDS011;31655;48.972;10.686;2022-10-15T11:04:19;0.75;;;0.40;;
45944;SDS011;31655;48.972;10.686;2022-10-15T11:12:51;1.73;;;1.50;;
45944;SDS011;31655;48.972;10.686;2022-10-15T11:19:09;0.80;;;0.80;;
45944;SDS011;31655;48.972;10.686;2022-10-15T11:21:42;1.58;;;0.70;;
45944;SDS011;31655;48.972;10.686;2022-10-15T11:24:19;1.45;;;0.70;;
45944;SDS011;31655;48.972;10.686;2022-10-15T11:26:54;2.28;;;0.40;;
45944;SDS011;31655;48.972;10.686;2022-10-15T11:40:12;2.70;;;0.98;;
45944;SDS011;31655;48.972;10.686;2022-10-15T11:45:25;1.85;;;0.65;;
45944;SDS011;31655;48.972;10.686;2022-10-15T11:48:14;1.27;;;0.80;;
45944;SDS011;31655;48.972;10.686;2022-10-15T11:57:00;2.40;;;0.50;;
45944;SDS011;31655;48.972;10.686;2022-10-15T12:02:00;0.50;;;0.50;;
45944;SDS011;31655;48.972;10.686;2022-10-15T12:05:02;0.75;;;0.47;;
45944;SDS011;31655;48.972;10.686;2022-10-15T12:07:48;1.30;;;1.00;;
45944;SDS011;31655;48.972;10.686;2022-10-15T12:13:10;1.05;;;0.65;;
45944;SDS011;31655;48.972;10.686;2022-10-15T12:18:26;2.42;;;0.65;;
45944;SDS011;31655;48.972;10.686;2022-10-15T12:20:53;1.33;;;0.70;;
45944;SDS011;31655;48.972;10.686;2022-10-15T12:26:00;3.25;;;0.82;;
45944;SDS011;31655;48.972;10.686;2022-10-15T12:28:28;1.27;;;0.77;;
45944;SDS011;31655;48.972;10.686;2022-10-15T12:31:03;3.58;;;0.70;;
45944;SDS011;31655;48.972;10.686;2022-10-15T12:33:31;1.50;;;0.65;;
45944;SDS011;31655;48.972;10.686;2022-10-15T12:36:44;1.60;;;0.95;;
45944;SDS011;31655;48.972;10.686;2022-10-15T12:44:03;1.50;;;0.75;;
45944;SDS011;31655;48.972;10.686;2022-10-15T12:46:37;1.67;;;0.60;;
45944;SDS011;31655;48.972;10.686;2022-10-15T12:51:52;4.20;;;0.90;;
45944;SDS011;31655;48.972;10.686;2022-10-15T12:54:38;0.70;;;0.70;;
45944;SDS011;31655;48.972;10.686;2022-10-15T12:59:55;2.40;;;1.00;;
45944;SDS011;31655;48.972;10.686;2022-10-15T13:04:57;3.00;;;0.70;;
45944;SDS011;31655;48.972;10.686;2022-10-15T13:07:23;0.88;;;0.70;;
45944;SDS011;31655;48.972;10.686;2022-10-15T13:09:49;1.55;;;0.88;;
45944;SDS011;31655;48.972;10.686;2022-10-15T13:12:22;1.60;;;0.95;;
45944;SDS011;31655;48.972;10.686;2022-10-15T13:14:54;1.02;;;0.60;;
45944;SDS011;31655;48.972;10.686;2022-10-15T13:17:28;3.67;;;0.77;;
45944;SDS011;31655;48.972;10.686;2022-10-15T13:20:04;1.55;;;0.80;;
45944;SDS011;31655;48.972;10.686;2022-10-15T13:22:34;2.20;;;0.98;;
45944;SDS011;31655;48.972;10.686;2022-10-15T13:25:01;2.05;;;0.68;;
45944;SDS011;31655;48.972;10.686;2022-10-15T13:27:31;1.50;;;0.90;;
45944;SDS011;31655;48.972;10.686;2022-10-15T13:30:11;1.05;;;0.50;;
45944;SDS011;31655;48.972;10.686;2022-10-15T13:32:48;3.78;;;0.73;;
45944;SDS011;31655;48.972;10.686;2022-10-15T13:35:26;2.10;;;0.68;;
45944;SDS011;31655;48.972;10.686;2022-10-15T13:37:56;7.00;;;0.60;;
45944;SDS011;31655;48.972;10.686;2022-10-15T13:40:24;1.40;;;0.47;;
45944;SDS011;31655;48.972;10.686;2022-10-15T13:42:58;4.43;;;0.70;;
45944;SDS011;31655;48.972;10.686;2022-10-15T13:45:25;0.90;;;0.52;;
45944;SDS011;31655;48.972;10.686;2022-10-15T13:47:52;1.85;;;0.60;;
45944;SDS011;31655;48.972;10.686;2022-10-15T13:55:34;3.47;;;1.30;;
45944;SDS011;31655;48.972;10.686;2022-10-15T14:00:49;10.02;;;6.22;;
45944;SDS011;31655;48.972;10.686;2022-10-15T14:03:27;3.47;;;2.10;;
45944;SDS011;31655;48.972;10.686;2022-10-15T14:05:55;3.00;;;1.88;;
45944;SDS011;31655;48.972;10.686;2022-10-15T14:08:32;4.28;;;0.90;;
45944;SDS011;31655;48.972;10.686;2022-10-15T14:10:58;11.70;;;0.85;;
45944;SDS011;31655;48.972;10.686;2022-10-15T14:13:25;1.77;;;0.82;;
45944;SDS011;31655;48.972;10.686;2022-10-15T14:18:35;0.77;;;0.77;;
45944;SDS011;31655;48.972;10.686;2022-10-15T14:21:03;1.63;;;1.00;;
45944;SDS011;31655;48.972;10.686;2022-10-15T14:23:36;3.28;;;0.90;;
45944;SDS011;31655;48.972;10.686;2022-10-15T14:26:03;3.00;;;0.75;;
45944;SDS011;31655;48.972;10.686;2022-10-15T14:28:30;2.45;;;0.70;;
45944;SDS011;31655;48.972;10.686;2022-10-15T14:30:58;4.22;;;0.80;;
45944;SDS011;31655;48.972;10.686;2022-10-15T14:38:46;1.40;;;0.65;;
45944;SDS011;31655;48.972;10.686;2022-10-15T14:41:31;4.68;;;1.20;;
45944;SDS011;31655;48.972;10.686;2022-10-15T14:46:48;3.43;;;1.30;;
45944;SDS011;31655;48.972;10.686;2022-10-15T14:51:54;3.78;;;2.03;;
45944;SDS011;31655;48.972;10.686;2022-10-15T14:54:27;3.03;;;1.85;;
45944;SDS011;31655;48.972;10.686;2022-10-15T14:56:59;4.20;;;2.28;;
45944;SDS011;31655;48.972;10.686;2022-10-15T14:59:27;3.85;;;2.20;;
45944;SDS011;31655;48.972;10.686;2022-10-15T15:01:57;4.47;;;1.17;;
45944;SDS011;31655;48.972;10.686;2022-10-15T15:04:32;7.82;;;2.97;;
45944;SDS011;31655;48.972;10.686;2022-10-15T15:06:59;5.63;;;3.25;;
45944;SDS011;31655;48.972;10.686;2022-10-15T15:09:25;4.57;;;1.80;;
45944;SDS011;31655;48.972;10.686;2022-10-15T15:11:51;1.80;;;1.30;;
45944;SDS011;31655;48.972;10.686;2022-10-15T15:14:23;1.10;;;0.70;;
45944;SDS011;31655;48.972;10.686;2022-10-15T15:16:49;4.78;;;1.35;;
45944;SDS011;31655;48.972;10.686;2022-10-15T15:19:15;3.78;;;1.27;;
45944;SDS011;31655;48.972;10.686;2022-10-15T15:21:41;1.60;;;1.27;;
45944;SDS011;31655;48.972;10.686;2022-10-15T15:24:09;3.45;;;2.55;;
45944;SDS011;31655;48.972;10.686;2022-10-15T15:26:35;2.53;;;1.23;;
45944;SDS011;31655;48.972;10.686;2022-10-15T15:29:01;2.10;;;0.85;;
45944;SDS011;31655;48.972;10.686;2022-10-15T15:31:27;1.48;;;0.93;;
45944;SDS011;31655;48.972;10.686;2022-10-15T15:33:56;2.63;;;0.75;;
45944;SDS011;31655;48.972;10.686;2022-10-15T15:36:22;1.52;;;0.90;;
45944;SDS011;31655;48.972;10.686;2022-10-15T15:38:47;3.58;;;0.85;;
45944;SDS011;31655;48.972;10.686;2022-10-15T15:41:18;2.88;;;0.93;;
45944;SDS011;31655;48.972;10.686;2022-10-15T15:43:45;1.90;;;0.90;;
45944;SDS011;31655;48.972;10.686;2022-10-15T15:46:11;1.58;;;0.85;;
45944;SDS011;31655;48.972;10.686;2022-10-15T15:48:37;1.80;;;0.80;;
45944;SDS011;31655;48.972;10.686;2022-10-15T15:51:03;2.33;;;0.93;;
45944;SDS011;31655;48.972;10.686;2022-10-15T15:53:34;1.35;;;0.93;;
45944;SDS011;31655;48.972;10.686;2022-10-15T15:55:59;1.77;;;1.00;;
45944;SDS011;31655;48.972;10.686;2022-10-15T15:58:25;2.78;;;0.90;;
45944;SDS011;31655;48.972;10.686;2022-10-15T16:00:51;1.10;;;0.95;;
45944;SDS011;31655;48.972;10.686;2022-10-15T16:03:16;1.83;;;0.80;;
45944;SDS011;31655;48.972;10.686;2022-10-15T16:05:42;1.70;;;1.00;;
45944;SDS011;31655;48.972;10.686;2022-10-15T16:08:08;1.77;;;1.10;;
45944;SDS011;31655;48.972;10.686;2022-10-15T16:10:35;1.92;;;0.88;;
45944;SDS011;31655;48.972;10.686;2022-10-15T16:13:01;3.03;;;1.15;;
45944;SDS011;31655;48.972;10.686;2022-10-15T16:15:26;3.03;;;1.55;;
45944;SDS011;31655;48.972;10.686;2022-10-15T16:17:52;3.03;;;1.00;;
45944;SDS011;31655;48.972;10.686;2022-10-15T16:20:18;4.55;;;1.20;;
45944;SDS011;31655;48.972;10.686;2022-10-15T16:22:48;1.25;;;1.02;;
45944;SDS011;31655;48.972;10.686;2022-10-15T16:25:17;2.50;;;0.80;;
45944;SDS011;31655;48.972;10.686;2022-10-15T16:27:45;6.00;;;1.10;;
45944;SDS011;31655;48.972;10.686;2022-10-15T16:30:13;2.63;;;1.10;;
45944;SDS011;31655;48.972;10.686;2022-10-15T16:32:39;5.85;;;1.50;;
45944;SDS011;31655;48.972;10.686;2022-10-15T16:35:05;4.78;;;1.52;;
45944;SDS011;31655;48.972;10.686;2022-10-15T16:37:31;4.95;;;2.40;;
45944;SDS011;31655;48.972;10.686;2022-10-15T16:39:57;4.65;;;1.67;;
45944;SDS011;31655;48.972;10.686;2022-10-15T16:42:23;2.03;;;1.35;;
45944;SDS011;31655;48.972;10.686;2022-10-15T16:44:48;12.60;;;2.65;;
45944;SDS011;31655;48.972;10.686;2022-10-15T16:47:14;7.07;;;2.40;;
45944;SDS011;31655;48.972;10.686;2022-10-15T16:49:40;5.55;;;2.47;;
45944;SDS011;31655;48.972;10.686;2022-10-15T16:52:07;3.83;;;1.65;;
45944;SDS011;31655;48.972;10.686;2022-10-15T16:54:33;3.28;;;1.85;;